^^
Saratoga-Weather Station Historical Data
Daily Summary for March 16, 2020 Units:  Both    English   Metric
Daily Weekly Monthly Yearly Custom
  High: Low: Average:
Temperature: 53.4 °F /  11.9 °C 39 °F /  3.9 °C 46 °F /  7.8 °C
Dew Point: 46.9 °F /  8.3 °C 37.8 °F /  3.2 °C 43.5 °F /  6.4 °C
Humidity: 96% 78% 91%
Wind Speed: 8.1mph /  13km/h - 0.6mph /  0.9km/h
Wind Gust: 11mph /  17.7km/h - -
Wind- - SE
Pressure: 30.3 in /  1026.8 hPa 30.2 in /  1021.3 hPa -
Precipitation: 0 in /  0.0 mm    
Historical Graphs
 
 
Tabular Data for March 16, 2020
Time Temperature Dew Point Pressure Wind Wind Speed Wind Gust Humidity Rainfall Rate (Hourly) solar
00:02 50.7 °F /  10.4 °C 45.7 °F /  7.6 °C 30.2in /  1023.0hPa Calm   5mph /  8km/h 83% 0in /  0.0mm 0 W/m2
00:07 50.7 °F /  10.4 °C 45.7 °F /  7.6 °C 30.2in /  1023.0hPa Calm     83% 0in /  0.0mm 0 W/m2
00:12 50.5 °F /  10.3 °C 45.5 °F /  7.5 °C 30.2in /  1023.0hPa WSW 2mph /  3.2km/h 4mph /  6.4km/h 83% 0in /  0.0mm 0 W/m2
00:17 50.7 °F /  10.4 °C 45.7 °F /  7.6 °C 30.2in /  1023.0hPa Calm     83% 0in /  0.0mm 0 W/m2
00:22 50.7 °F /  10.4 °C 45.7 °F /  7.6 °C 30.2in /  1023.4hPa West 4mph /  6.4km/h 8mph /  12.9km/h 83% 0in /  0.0mm 0 W/m2
00:27 50.5 °F /  10.3 °C 45.5 °F /  7.5 °C 30.2in /  1023.4hPa Calm   3mph /  4.8km/h 83% 0in /  0.0mm 0 W/m2
00:32 50.7 °F /  10.4 °C 45.7 °F /  7.6 °C 30.2in /  1023.4hPa Calm   1mph /  1.6km/h 83% 0in /  0.0mm 0 W/m2
00:37 50.7 °F /  10.4 °C 45.7 °F /  7.6 °C 30.2in /  1023.4hPa WSW 2mph /  3.2km/h 6mph /  9.7km/h 83% 0in /  0.0mm 0 W/m2
00:42 50.5 °F /  10.3 °C 45.5 °F /  7.5 °C 30.2in /  1023.4hPa Calm   1mph /  1.6km/h 83% 0in /  0.0mm 0 W/m2
00:47 50.2 °F /  10.1 °C 45.5 °F /  7.5 °C 30.2in /  1023.4hPa SW 0.9mph /  1.4km/h 5mph /  8km/h 84% 0in /  0.0mm 0 W/m2
00:52 49.8 °F /  9.9 °C 45.5 °F /  7.5 °C 30.2in /  1023.4hPa Calm     85% 0in /  0.0mm 0 W/m2
00:57 49.6 °F /  9.8 °C 45.3 °F /  7.4 °C 30.2in /  1023.4hPa Calm   2mph /  3.2km/h 85% 0in /  0.0mm 0 W/m2
01:02 49.5 °F /  9.7 °C 45.1 °F /  7.3 °C 30.2in /  1023.4hPa Calm     85% 0in /  0.0mm 0 W/m2
01:07 48.9 °F /  9.4 °C 45 °F /  7.2 °C 30.2in /  1023.4hPa Calm   3mph /  4.8km/h 86% 0in /  0.0mm 0 W/m2
01:12 48.7 °F /  9.3 °C 44.8 °F /  7.1 °C 30.2in /  1023.7hPa Calm     86% 0in /  0.0mm 0 W/m2
01:17 48.7 °F /  9.3 °C 45 °F /  7.2 °C 30.2in /  1023.7hPa Calm   2mph /  3.2km/h 87% 0in /  0.0mm 0 W/m2
01:22 48.6 °F /  9.2 °C 44.8 °F /  7.1 °C 30.2in /  1023.7hPa Calm     87% 0in /  0.0mm 0 W/m2
01:27 48.6 °F /  9.2 °C 44.8 °F /  7.1 °C 30.2in /  1023.7hPa South 2mph /  3.2km/h 3mph /  4.8km/h 87% 0in /  0.0mm 0 W/m2
01:32 48.4 °F /  9.1 °C 44.8 °F /  7.1 °C 30.2in /  1023.7hPa Calm   3mph /  4.8km/h 87% 0in /  0.0mm 0 W/m2
01:37 48 °F /  8.9 °C 44.4 °F /  6.9 °C 30.2in /  1023.7hPa Calm   1mph /  1.6km/h 87% 0in /  0.0mm 0 W/m2
01:42 47.8 °F /  8.8 °C 44.4 °F /  6.9 °C 30.2in /  1023.7hPa West 2.9mph /  4.7km/h 4mph /  6.4km/h 88% 0in /  0.0mm 0 W/m2
01:47 47.7 °F /  8.7 °C 44.1 °F /  6.7 °C 30.2in /  1023.7hPa Calm   2mph /  3.2km/h 87% 0in /  0.0mm 0 W/m2
01:52 47.5 °F /  8.6 °C 44.1 °F /  6.7 °C 30.2in /  1023.7hPa SSW 0.9mph /  1.4km/h 3mph /  4.8km/h 88% 0in /  0.0mm 0 W/m2
01:57 47.5 °F /  8.6 °C 44.4 °F /  6.9 °C 30.2in /  1024.0hPa Calm   2mph /  3.2km/h 89% 0in /  0.0mm 0 W/m2
02:02 47.7 °F /  8.7 °C 44.6 °F /  7 °C 30.2in /  1023.7hPa Calm   1mph /  1.6km/h 89% 0in /  0.0mm 0 W/m2
02:07 47.5 °F /  8.6 °C 44.1 °F /  6.7 °C 30.2in /  1024.0hPa Calm     88% 0in /  0.0mm 0 W/m2
02:12 46.9 °F /  8.3 °C 43.5 °F /  6.4 °C 30.2in /  1024.0hPa Calm   1mph /  1.6km/h 88% 0in /  0.0mm 0 W/m2
02:17 46.8 °F /  8.2 °C 43.3 °F /  6.3 °C 30.2in /  1024.0hPa Calm   1mph /  1.6km/h 88% 0in /  0.0mm 0 W/m2
02:22 46.4 °F /  8 °C 43.3 °F /  6.3 °C 30.2in /  1024.0hPa Calm     89% 0in /  0.0mm 0 W/m2
02:27 46.2 °F /  7.9 °C 43.5 °F /  6.4 °C 30.2in /  1024.0hPa Calm   1mph /  1.6km/h 90% 0in /  0.0mm 0 W/m2
02:32 46 °F /  7.8 °C 43.3 °F /  6.3 °C 30.3in /  1024.4hPa WSW 2mph /  3.2km/h 2mph /  3.2km/h 90% 0in /  0.0mm 0 W/m2
02:37 46 °F /  7.8 °C 43.5 °F /  6.4 °C 30.3in /  1024.4hPa Calm   2mph /  3.2km/h 91% 0in /  0.0mm 0 W/m2
02:42 46.4 °F /  8 °C 44.2 °F /  6.8 °C 30.3in /  1024.4hPa Calm     92% 0in /  0.0mm 0 W/m2
02:47 46.8 °F /  8.2 °C 44.6 °F /  7 °C 30.3in /  1024.4hPa Calm     92% 0in /  0.0mm 0 W/m2
02:52 47.1 °F /  8.4 °C 45 °F /  7.2 °C 30.3in /  1024.7hPa Calm   2mph /  3.2km/h 92% 0in /  0.0mm 0 W/m2
02:57 47.5 °F /  8.6 °C 45 °F /  7.2 °C 30.3in /  1024.7hPa Calm   2mph /  3.2km/h 91% 0in /  0.0mm 0 W/m2
03:02 47.7 °F /  8.7 °C 45.1 °F /  7.3 °C 30.3in /  1024.7hPa Calm   1mph /  1.6km/h 91% 0in /  0.0mm 0 W/m2
03:07 47.7 °F /  8.7 °C 45.1 °F /  7.3 °C 30.3in /  1024.7hPa Calm   3mph /  4.8km/h 91% 0in /  0.0mm 0 W/m2
03:12 47.7 °F /  8.7 °C 45 °F /  7.2 °C 30.3in /  1024.7hPa SSE 2mph /  3.2km/h 2mph /  3.2km/h 90% 0in /  0.0mm 0 W/m2
03:17 47.7 °F /  8.7 °C 45 °F /  7.2 °C 30.3in /  1024.7hPa Calm     90% 0in /  0.0mm 0 W/m2
03:22 47.7 °F /  8.7 °C 45 °F /  7.2 °C 30.3in /  1024.7hPa Calm     90% 0in /  0.0mm 0 W/m2
03:27 47.7 °F /  8.7 °C 45 °F /  7.2 °C 30.3in /  1024.7hPa Calm     90% 0in /  0.0mm 0 W/m2
03:32 47.5 °F /  8.6 °C 44.8 °F /  7.1 °C 30.3in /  1024.7hPa Calm   2mph /  3.2km/h 90% 0in /  0.0mm 0 W/m2
03:37 47.5 °F /  8.6 °C 44.8 °F /  7.1 °C 30.3in /  1024.7hPa Calm     90% 0in /  0.0mm 0 W/m2
03:42 47.5 °F /  8.6 °C 45 °F /  7.2 °C 30.3in /  1024.7hPa Calm   2mph /  3.2km/h 91% 0in /  0.0mm 0 W/m2
03:47 47.5 °F /  8.6 °C 45 °F /  7.2 °C 30.3in /  1025.1hPa Calm     91% 0in /  0.0mm 0 W/m2
03:52 47.5 °F /  8.6 °C 45 °F /  7.2 °C 30.3in /  1025.1hPa Calm   2mph /  3.2km/h 91% 0in /  0.0mm 0 W/m2
03:57 47.5 °F /  8.6 °C 45 °F /  7.2 °C 30.3in /  1025.1hPa Calm     91% 0in /  0.0mm 0 W/m2
04:02 47.5 °F /  8.6 °C 45 °F /  7.2 °C 30.3in /  1025.1hPa Calm     91% 0in /  0.0mm 0 W/m2
04:07 47.5 °F /  8.6 °C 45 °F /  7.2 °C 30.3in /  1025.1hPa Calm   1mph /  1.6km/h 91% 0in /  0.0mm 0 W/m2
04:12 47.5 °F /  8.6 °C 45 °F /  7.2 °C 30.3in /  1025.1hPa Calm   1mph /  1.6km/h 91% 0in /  0.0mm 0 W/m2
04:17 47.5 °F /  8.6 °C 45 °F /  7.2 °C 30.3in /  1025.1hPa Calm     91% 0in /  0.0mm 0 W/m2
04:22 47.5 °F /  8.6 °C 45 °F /  7.2 °C 30.3in /  1025.1hPa Calm   2mph /  3.2km/h 91% 0in /  0.0mm 0 W/m2
04:27 47.7 °F /  8.7 °C 45.5 °F /  7.5 °C 30.3in /  1025.4hPa Calm     92% 0in /  0.0mm 0 W/m2
04:32 47.7 °F /  8.7 °C 45.5 °F /  7.5 °C 30.3in /  1025.4hPa Calm   2mph /  3.2km/h 92% 0in /  0.0mm 0 W/m2
04:37 47.7 °F /  8.7 °C 45.5 °F /  7.5 °C 30.3in /  1025.4hPa Calm     92% 0in /  0.0mm 0 W/m2
04:42 47.7 °F /  8.7 °C 45.5 °F /  7.5 °C 30.3in /  1025.4hPa Calm     92% 0in /  0.0mm 0 W/m2
04:47 47.7 °F /  8.7 °C 45.5 °F /  7.5 °C 30.3in /  1025.4hPa Calm     92% 0in /  0.0mm 0 W/m2
04:52 47.5 °F /  8.6 °C 45.3 °F /  7.4 °C 30.3in /  1025.4hPa Calm     92% 0in /  0.0mm 0 W/m2
04:57 47.5 °F /  8.6 °C 45 °F /  7.2 °C 30.3in /  1025.4hPa Calm     91% 0in /  0.0mm 0 W/m2
05:03 47.3 °F /  8.5 °C 44.8 °F /  7.1 °C 30.3in /  1025.4hPa Calm     91% 0in /  0.0mm 0 W/m2
05:08 47.1 °F /  8.4 °C 44.6 °F /  7 °C 30.3in /  1025.4hPa Calm     91% 0in /  0.0mm 0 W/m2
05:13 46.9 °F /  8.3 °C 44.8 °F /  7.1 °C 30.3in /  1025.4hPa Calm     92% 0in /  0.0mm 0 W/m2
05:18 46.9 °F /  8.3 °C 44.8 °F /  7.1 °C 30.3in /  1025.7hPa Calm     92% 0in /  0.0mm 0 W/m2
05:23 46.9 °F /  8.3 °C 44.8 °F /  7.1 °C 30.3in /  1025.4hPa Calm     92% 0in /  0.0mm 0 W/m2
05:28 46.9 °F /  8.3 °C 44.8 °F /  7.1 °C 30.3in /  1025.4hPa Calm     92% 0in /  0.0mm 0 W/m2
05:33 46.9 °F /  8.3 °C 44.8 °F /  7.1 °C 30.3in /  1025.7hPa Calm     92% 0in /  0.0mm 0 W/m2
05:38 46.8 °F /  8.2 °C 44.6 °F /  7 °C 30.3in /  1025.7hPa Calm     92% 0in /  0.0mm 0 W/m2
05:43 46.8 °F /  8.2 °C 44.6 °F /  7 °C 30.3in /  1025.7hPa Calm   2mph /  3.2km/h 92% 0in /  0.0mm 0 W/m2
05:48 46.6 °F /  8.1 °C 44.4 °F /  6.9 °C 30.3in /  1025.4hPa Calm   1mph /  1.6km/h 92% 0in /  0.0mm 0 W/m2
05:53 46.6 °F /  8.1 °C 44.4 °F /  6.9 °C 30.3in /  1025.7hPa Calm   2mph /  3.2km/h 92% 0in /  0.0mm 0 W/m2
05:58 46.6 °F /  8.1 °C 44.4 °F /  6.9 °C 30.3in /  1025.7hPa Calm     92% 0in /  0.0mm 0 W/m2
06:03 46.2 °F /  7.9 °C 44.1 °F /  6.7 °C 30.3in /  1025.7hPa Calm     92% 0in /  0.0mm 0 W/m2
06:08 46 °F /  7.8 °C 43.9 °F /  6.6 °C 30.3in /  1025.7hPa Calm     92% 0in /  0.0mm 0 W/m2
06:13 45.9 °F /  7.7 °C 43.7 °F /  6.5 °C 30.3in /  1025.7hPa Calm     92% 0in /  0.0mm 0 W/m2
06:18 45.7 °F /  7.6 °C 43.5 °F /  6.4 °C 30.3in /  1025.7hPa Calm     92% 0in /  0.0mm 0 W/m2
06:23 45.5 °F /  7.5 °C 43.5 °F /  6.4 °C 30.3in /  1025.7hPa Calm     93% 0in /  0.0mm 0 W/m2
06:28 45.1 °F /  7.3 °C 43.2 °F /  6.2 °C 30.3in /  1025.7hPa Calm     93% 0in /  0.0mm 0 W/m2
06:34 45 °F /  7.2 °C 42.8 °F /  6 °C 30.3in /  1025.7hPa SSW 0.9mph /  1.4km/h 2mph /  3.2km/h 92% 0in /  0.0mm 0 W/m2
06:39 44.8 °F /  7.1 °C 42.8 °F /  6 °C 30.3in /  1025.7hPa Calm     93% 0in /  0.0mm 0 W/m2
06:44 44.6 °F /  7 °C 42.6 °F /  5.9 °C 30.3in /  1025.7hPa Calm     93% 0in /  0.0mm 0 W/m2
06:49 44.4 °F /  6.9 °C 42.4 °F /  5.8 °C 30.3in /  1025.7hPa Calm     93% 0in /  0.0mm 0 W/m2
06:54 44.4 °F /  6.9 °C 42.4 °F /  5.8 °C 30.3in /  1025.7hPa Calm     93% 0in /  0.0mm 0 W/m2
06:59 44.4 °F /  6.9 °C 42.8 °F /  6 °C 30.3in /  1025.7hPa Calm     94% 0in /  0.0mm 0 W/m2
07:04 44.4 °F /  6.9 °C 42.8 °F /  6 °C 30.3in /  1025.7hPa Calm     94% 0in /  0.0mm 0 W/m2
07:09 44.4 °F /  6.9 °C 42.8 °F /  6 °C 30.3in /  1025.7hPa Calm     94% 0in /  0.0mm 0 W/m2
07:14 44.4 °F /  6.9 °C 42.8 °F /  6 °C 30.3in /  1026.1hPa Calm     94% 0in /  0.0mm 0 W/m2
07:19 44.4 °F /  6.9 °C 42.8 °F /  6 °C 30.3in /  1026.1hPa Calm   1mph /  1.6km/h 94% 0in /  0.0mm 0 W/m2
07:24 44.2 °F /  6.8 °C 42.6 °F /  5.9 °C 30.3in /  1026.1hPa Calm     94% 0in /  0.0mm 0 W/m2
07:29 44.1 °F /  6.7 °C 42.4 °F /  5.8 °C 30.3in /  1026.1hPa Calm   1mph /  1.6km/h 94% 0in /  0.0mm 0 W/m2
07:34 43.9 °F /  6.6 °C 42.3 °F /  5.7 °C 30.3in /  1026.1hPa Calm     94% 0in /  0.0mm 0 W/m2
07:39 43.7 °F /  6.5 °C 42.1 °F /  5.6 °C 30.3in /  1026.1hPa Calm     94% 0in /  0.0mm 0 W/m2
07:44 43.5 °F /  6.4 °C 41.9 °F /  5.5 °C 30.3in /  1026.1hPa Calm     94% 0in /  0.0mm 0 W/m2
07:49 43.3 °F /  6.3 °C 41.7 °F /  5.4 °C 30.3in /  1026.1hPa Calm     94% 0in /  0.0mm 0 W/m2
07:54 43.2 °F /  6.2 °C 41.5 °F /  5.3 °C 30.3in /  1026.1hPa Calm     94% 0in /  0.0mm 0 W/m2
07:59 43.2 °F /  6.2 °C 41.5 °F /  5.3 °C 30.3in /  1026.1hPa Calm     94% 0in /  0.0mm 0 W/m2
08:04 43 °F /  6.1 °C 41.4 °F /  5.2 °C 30.3in /  1026.1hPa Calm     94% 0in /  0.0mm 0 W/m2
08:09 42.8 °F /  6 °C 41.2 °F /  5.1 °C 30.3in /  1026.1hPa Calm     94% 0in /  0.0mm 0 W/m2
08:14 42.6 °F /  5.9 °C 41.4 °F /  5.2 °C 30.3in /  1026.1hPa Calm     95% 0in /  0.0mm 0 W/m2
08:19 42.6 °F /  5.9 °C 41.4 °F /  5.2 °C 30.3in /  1026.4hPa Calm     95% 0in /  0.0mm 0 W/m2
08:24 42.6 °F /  5.9 °C 41.4 °F /  5.2 °C 30.3in /  1026.4hPa Calm     95% 0in /  0.0mm 0 W/m2
08:29 42.4 °F /  5.8 °C 41.2 °F /  5.1 °C 30.3in /  1026.4hPa Calm     95% 0in /  0.0mm 5 W/m2
08:34 42.4 °F /  5.8 °C 41.2 °F /  5.1 °C 30.3in /  1026.4hPa Calm     95% 0in /  0.0mm 11 W/m2
08:39 42.6 °F /  5.9 °C 41.4 °F /  5.2 °C 30.3in /  1026.4hPa Calm     95% 0in /  0.0mm 14 W/m2
08:44 43 °F /  6.1 °C 41.7 °F /  5.4 °C 30.3in /  1026.4hPa Calm     95% 0in /  0.0mm 18 W/m2
08:49 43 °F /  6.1 °C 41.9 °F /  5.5 °C 30.3in /  1026.4hPa Calm     96% 0in /  0.0mm 19 W/m2
08:54 43 °F /  6.1 °C 41.7 °F /  5.4 °C 30.3in /  1026.8hPa Calm     95% 0in /  0.0mm 28 W/m2
08:59 43 °F /  6.1 °C 41.7 °F /  5.4 °C 30.3in /  1026.8hPa Calm     95% 0in /  0.0mm 32 W/m2
09:04 43 °F /  6.1 °C 41.9 °F /  5.5 °C 30.3in /  1026.8hPa South 0.9mph /  1.4km/h 2mph /  3.2km/h 96% 0in /  0.0mm 18 W/m2
09:09 43.2 °F /  6.2 °C 42.1 °F /  5.6 °C 30.3in /  1026.8hPa Calm   3mph /  4.8km/h 96% 0in /  0.0mm 16 W/m2
09:14 43.2 °F /  6.2 °C 41.9 °F /  5.5 °C 30.3in /  1026.8hPa Calm     95% 0in /  0.0mm 16 W/m2
09:20 43.2 °F /  6.2 °C 41.9 °F /  5.5 °C 30.3in /  1026.8hPa Calm     95% 0in /  0.0mm 18 W/m2
09:25 43 °F /  6.1 °C 41.7 °F /  5.4 °C 30.3in /  1026.8hPa Calm     95% 0in /  0.0mm 18 W/m2
09:30 43 °F /  6.1 °C 41.7 °F /  5.4 °C 30.3in /  1026.8hPa Calm     95% 0in /  0.0mm 19 W/m2
09:35 43 °F /  6.1 °C 41.7 °F /  5.4 °C 30.3in /  1026.8hPa Calm     95% 0in /  0.0mm 19 W/m2
09:40 43 °F /  6.1 °C 41.7 °F /  5.4 °C 30.3in /  1026.8hPa Calm     95% 0in /  0.0mm 21 W/m2
09:45 42.8 °F /  6 °C 41.5 °F /  5.3 °C 30.3in /  1026.8hPa Calm     95% 0in /  0.0mm 21 W/m2
09:50 42.8 °F /  6 °C 41.5 °F /  5.3 °C 30.3in /  1026.8hPa Calm     95% 0in /  0.0mm 21 W/m2
09:55 42.6 °F /  5.9 °C 41.4 °F /  5.2 °C 30.3in /  1026.4hPa Calm     95% 0in /  0.0mm 23 W/m2
10:00 42.6 °F /  5.9 °C 41.4 °F /  5.2 °C 30.3in /  1026.4hPa Calm     95% 0in /  0.0mm 25 W/m2
10:05 42.6 °F /  5.9 °C 41.4 °F /  5.2 °C 30.3in /  1026.8hPa Calm     95% 0in /  0.0mm 25 W/m2
10:10 42.8 °F /  6 °C 41.5 °F /  5.3 °C 30.3in /  1026.8hPa Calm     95% 0in /  0.0mm 25 W/m2
10:15 43 °F /  6.1 °C 41.9 °F /  5.5 °C 30.3in /  1026.8hPa Calm     96% 0in /  0.0mm 26 W/m2
10:20 43 °F /  6.1 °C 41.9 °F /  5.5 °C 30.3in /  1026.8hPa Calm     96% 0in /  0.0mm 28 W/m2
10:25 43.2 °F /  6.2 °C 42.1 °F /  5.6 °C 30.3in /  1026.8hPa Calm     96% 0in /  0.0mm 26 W/m2
10:30 43.2 °F /  6.2 °C 42.1 °F /  5.6 °C 30.3in /  1026.8hPa Calm     96% 0in /  0.0mm 33 W/m2
10:35 43.2 °F /  6.2 °C 42.1 °F /  5.6 °C 30.3in /  1026.8hPa Calm     96% 0in /  0.0mm 35 W/m2
10:40 43.3 °F /  6.3 °C 42.3 °F /  5.7 °C 30.3in /  1026.8hPa Calm     96% 0in /  0.0mm 30 W/m2
10:45 43.3 °F /  6.3 °C 42.3 °F /  5.7 °C 30.3in /  1026.8hPa Calm     96% 0in /  0.0mm 35 W/m2
10:51 43.5 °F /  6.4 °C 42.4 °F /  5.8 °C 30.3in /  1026.8hPa Calm     96% 0in /  0.0mm 39 W/m2
10:56 43.7 °F /  6.5 °C 42.6 °F /  5.9 °C 30.3in /  1026.4hPa Calm     96% 0in /  0.0mm 30 W/m2
11:01 43.9 °F /  6.6 °C 42.8 °F /  6 °C 30.3in /  1026.4hPa Calm     96% 0in /  0.0mm 30 W/m2
11:06 44.1 °F /  6.7 °C 43 °F /  6.1 °C 30.3in /  1026.4hPa Calm     96% 0in /  0.0mm 30 W/m2
11:11 44.1 °F /  6.7 °C 43 °F /  6.1 °C 30.3in /  1026.8hPa Calm     96% 0in /  0.0mm 30 W/m2
11:16 44.2 °F /  6.8 °C 43.2 °F /  6.2 °C 30.3in /  1026.4hPa Calm     96% 0in /  0.0mm 32 W/m2
11:21 44.4 °F /  6.9 °C 43.3 °F /  6.3 °C 30.3in /  1026.4hPa Calm     96% 0in /  0.0mm 33 W/m2
11:26 44.8 °F /  7.1 °C 43.7 °F /  6.5 °C 30.3in /  1026.4hPa Calm     96% 0in /  0.0mm 30 W/m2
11:31 45.1 °F /  7.3 °C 44.1 °F /  6.7 °C 30.3in /  1026.4hPa Calm     96% 0in /  0.0mm 30 W/m2
11:36 45.7 °F /  7.6 °C 44.6 °F /  7 °C 30.3in /  1026.4hPa Calm   1mph /  1.6km/h 96% 0in /  0.0mm 32 W/m2
11:41 46 °F /  7.8 °C 45 °F /  7.2 °C 30.3in /  1026.1hPa Calm   2mph /  3.2km/h 96% 0in /  0.0mm 33 W/m2
11:46 46.6 °F /  8.1 °C 45.1 °F /  7.3 °C 30.3in /  1026.1hPa NE 2mph /  3.2km/h 3mph /  4.8km/h 95% 0in /  0.0mm 33 W/m2
11:51 47.1 °F /  8.4 °C 45.5 °F /  7.5 °C 30.3in /  1025.7hPa SE 0.9mph /  1.4km/h 3mph /  4.8km/h 94% 0in /  0.0mm 35 W/m2
11:56 47.5 °F /  8.6 °C 45.5 °F /  7.5 °C 30.3in /  1025.7hPa East 2mph /  3.2km/h 4mph /  6.4km/h 93% 0in /  0.0mm 33 W/m2
12:01 47.8 °F /  8.8 °C 45.7 °F /  7.6 °C 30.3in /  1025.7hPa Calm   2mph /  3.2km/h 92% 0in /  0.0mm 32 W/m2
12:06 48 °F /  8.9 °C 45.9 °F /  7.7 °C 30.3in /  1025.7hPa East 2.9mph /  4.7km/h 5mph /  8km/h 92% 0in /  0.0mm 30 W/m2
12:11 48.6 °F /  9.2 °C 46 °F /  7.8 °C 30.3in /  1025.7hPa ENE 4mph /  6.4km/h 5mph /  8km/h 91% 0in /  0.0mm 32 W/m2
12:16 48.9 °F /  9.4 °C 46 °F /  7.8 °C 30.3in /  1025.7hPa Calm   2mph /  3.2km/h 90% 0in /  0.0mm 35 W/m2
12:21 49.1 °F /  9.5 °C 46 °F /  7.8 °C 30.3in /  1025.7hPa East 2.9mph /  4.7km/h 5mph /  8km/h 89% 0in /  0.0mm 35 W/m2
12:26 49.5 °F /  9.7 °C 46 °F /  7.8 °C 30.3in /  1025.7hPa East 2mph /  3.2km/h 4mph /  6.4km/h 88% 0in /  0.0mm 30 W/m2
12:31 49.6 °F /  9.8 °C 46.2 °F /  7.9 °C 30.3in /  1025.7hPa East 0.9mph /  1.4km/h 2mph /  3.2km/h 88% 0in /  0.0mm 30 W/m2
12:36 49.8 °F /  9.9 °C 46 °F /  7.8 °C 30.3in /  1025.4hPa East 4mph /  6.4km/h 4mph /  6.4km/h 87% 0in /  0.0mm 30 W/m2
12:41 50 °F /  10 °C 46.2 °F /  7.9 °C 30.3in /  1025.4hPa East 2mph /  3.2km/h 4mph /  6.4km/h 87% 0in /  0.0mm 30 W/m2
12:46 50.2 °F /  10.1 °C 46.2 °F /  7.9 °C 30.3in /  1025.4hPa East 2.9mph /  4.7km/h 4mph /  6.4km/h 86% 0in /  0.0mm 33 W/m2
12:51 50.2 °F /  10.1 °C 46.2 °F /  7.9 °C 30.3in /  1025.4hPa ESE 2mph /  3.2km/h 2mph /  3.2km/h 86% 0in /  0.0mm 30 W/m2
12:56 50.2 °F /  10.1 °C 46.2 °F /  7.9 °C 30.3in /  1025.4hPa East 2mph /  3.2km/h 4mph /  6.4km/h 86% 0in /  0.0mm 32 W/m2
13:01 50.4 °F /  10.2 °C 46.4 °F /  8 °C 30.3in /  1025.1hPa NE 2mph /  3.2km/h 5mph /  8km/h 86% 0in /  0.0mm 33 W/m2
13:06 50.5 °F /  10.3 °C 46.2 °F /  7.9 °C 30.3in /  1025.1hPa Calm   4mph /  6.4km/h 85% 0in /  0.0mm 35 W/m2
13:11 50.7 °F /  10.4 °C 46.4 °F /  8 °C 30.3in /  1025.1hPa ESE 0.9mph /  1.4km/h 6mph /  9.7km/h 85% 0in /  0.0mm 32 W/m2
13:17 51.3 °F /  10.7 °C 46.6 °F /  8.1 °C 30.3in /  1025.1hPa SE 4mph /  6.4km/h 6mph /  9.7km/h 84% 0in /  0.0mm 35 W/m2
13:22 51.6 °F /  10.9 °C 46.6 °F /  8.1 °C 30.3in /  1025.1hPa SE 2mph /  3.2km/h 5mph /  8km/h 83% 0in /  0.0mm 30 W/m2
13:27 51.8 °F /  11 °C 46.4 °F /  8 °C 30.3in /  1025.1hPa East 0.9mph /  1.4km/h 4mph /  6.4km/h 82% 0in /  0.0mm 35 W/m2
13:32 52 °F /  11.1 °C 46.6 °F /  8.1 °C 30.3in /  1024.7hPa East 2.9mph /  4.7km/h 3mph /  4.8km/h 82% 0in /  0.0mm 37 W/m2
13:37 52 °F /  11.1 °C 46.6 °F /  8.1 °C 30.3in /  1024.7hPa ESE 2mph /  3.2km/h 6mph /  9.7km/h 82% 0in /  0.0mm 37 W/m2
13:42 52 °F /  11.1 °C 46.6 °F /  8.1 °C 30.3in /  1024.7hPa East 0.9mph /  1.4km/h 8mph /  12.9km/h 82% 0in /  0.0mm 30 W/m2
13:47 52.2 °F /  11.2 °C 46.8 °F /  8.2 °C 30.3in /  1024.7hPa Calm   4mph /  6.4km/h 82% 0in /  0.0mm 30 W/m2
13:52 52.2 °F /  11.2 °C 46.6 °F /  8.1 °C 30.3in /  1024.4hPa Calm   8mph /  12.9km/h 81% 0in /  0.0mm 32 W/m2
13:57 52.3 °F /  11.3 °C 46.8 °F /  8.2 °C 30.3in /  1024.4hPa SE 2mph /  3.2km/h 4mph /  6.4km/h 81% 0in /  0.0mm 37 W/m2
14:02 52.3 °F /  11.3 °C 46.8 °F /  8.2 °C 30.3in /  1024.4hPa ESE 4mph /  6.4km/h 4mph /  6.4km/h 81% 0in /  0.0mm 28 W/m2
14:07 52.2 °F /  11.2 °C 46.6 °F /  8.1 °C 30.3in /  1024.4hPa ESE 4mph /  6.4km/h 4mph /  6.4km/h 81% 0in /  0.0mm 30 W/m2
14:12 52.2 °F /  11.2 °C 46.6 °F /  8.1 °C 30.2in /  1024.0hPa East 2mph /  3.2km/h 7mph /  11.3km/h 81% 0in /  0.0mm 32 W/m2
14:17 52.2 °F /  11.2 °C 46.6 °F /  8.1 °C 30.2in /  1024.0hPa East 0.9mph /  1.4km/h 7mph /  11.3km/h 81% 0in /  0.0mm 33 W/m2
14:22 52.2 °F /  11.2 °C 46.6 °F /  8.1 °C 30.2in /  1024.0hPa East 2mph /  3.2km/h 7mph /  11.3km/h 81% 0in /  0.0mm 33 W/m2
14:27 52.3 °F /  11.3 °C 46.8 °F /  8.2 °C 30.2in /  1024.0hPa ESE 4mph /  6.4km/h 7mph /  11.3km/h 81% 0in /  0.0mm 37 W/m2
14:32 52.5 °F /  11.4 °C 46.9 °F /  8.3 °C 30.2in /  1024.0hPa East 2.9mph /  4.7km/h 8mph /  12.9km/h 81% 0in /  0.0mm 30 W/m2
14:37 52.5 °F /  11.4 °C 46.6 °F /  8.1 °C 30.2in /  1024.0hPa ESE 4.9mph /  7.9km/h 9mph /  14.5km/h 80% 0in /  0.0mm 28 W/m2
14:42 52.5 °F /  11.4 °C 46.6 °F /  8.1 °C 30.2in /  1023.7hPa East 4mph /  6.4km/h 9mph /  14.5km/h 80% 0in /  0.0mm 26 W/m2
14:47 52.9 °F /  11.6 °C 46.9 °F /  8.3 °C 30.2in /  1023.7hPa ESE 6.9mph /  11.1km/h 10mph /  16.1km/h 80% 0in /  0.0mm 25 W/m2
14:52 53.2 °F /  11.8 °C 46.9 °F /  8.3 °C 30.2in /  1023.7hPa ESE 8.1mph /  13km/h 11mph /  17.7km/h 79% 0in /  0.0mm 25 W/m2
14:57 53.2 °F /  11.8 °C 46.9 °F /  8.3 °C 30.2in /  1023.7hPa SE 2.9mph /  4.7km/h 10mph /  16.1km/h 79% 0in /  0.0mm 25 W/m2
15:02 53.4 °F /  11.9 °C 46.8 °F /  8.2 °C 30.2in /  1023.7hPa SE 8.1mph /  13km/h 11mph /  17.7km/h 78% 0in /  0.0mm 23 W/m2
15:07 53.4 °F /  11.9 °C 46.8 °F /  8.2 °C 30.2in /  1023.7hPa ESE 2.9mph /  4.7km/h 7mph /  11.3km/h 78% 0in /  0.0mm 23 W/m2
15:12 53.2 °F /  11.8 °C 46.6 °F /  8.1 °C 30.2in /  1023.7hPa East 2mph /  3.2km/h 8mph /  12.9km/h 78% 0in /  0.0mm 21 W/m2
15:17 53.2 °F /  11.8 °C 46.6 °F /  8.1 °C 30.2in /  1023.7hPa ESE 0.9mph /  1.4km/h 6mph /  9.7km/h 78% 0in /  0.0mm 21 W/m2
15:22 53.2 °F /  11.8 °C 46.9 °F /  8.3 °C 30.2in /  1023.7hPa ESE 2mph /  3.2km/h 6mph /  9.7km/h 79% 0in /  0.0mm 21 W/m2
15:27 52.9 °F /  11.6 °C 46.6 °F /  8.1 °C 30.2in /  1023.7hPa Calm   3mph /  4.8km/h 79% 0in /  0.0mm 21 W/m2
15:32 52.5 °F /  11.4 °C 46.6 °F /  8.1 °C 30.2in /  1023.7hPa Calm   6mph /  9.7km/h 80% 0in /  0.0mm 21 W/m2
15:37 52 °F /  11.1 °C 46.4 °F /  8 °C 30.2in /  1023.7hPa Calm   1mph /  1.6km/h 81% 0in /  0.0mm 19 W/m2
15:42 51.4 °F /  10.8 °C 45.9 °F /  7.7 °C 30.2in /  1023.4hPa ESE 4.9mph /  7.9km/h 7mph /  11.3km/h 81% 0in /  0.0mm 19 W/m2
15:47 51.1 °F /  10.6 °C 45.9 °F /  7.7 °C 30.2in /  1023.4hPa SE 2.9mph /  4.7km/h 3mph /  4.8km/h 82% 0in /  0.0mm 19 W/m2
15:52 50.5 °F /  10.3 °C 45.5 °F /  7.5 °C 30.2in /  1023.4hPa ESE 0.9mph /  1.4km/h 8mph /  12.9km/h 83% 0in /  0.0mm 18 W/m2
15:57 50.4 °F /  10.2 °C 45.7 °F /  7.6 °C 30.2in /  1023.4hPa Calm   3mph /  4.8km/h 84% 0in /  0.0mm 18 W/m2
16:02 50.4 °F /  10.2 °C 45.7 °F /  7.6 °C 30.2in /  1023.0hPa SE 2mph /  3.2km/h 6mph /  9.7km/h 84% 0in /  0.0mm 18 W/m2
16:07 50.4 °F /  10.2 °C 45.7 °F /  7.6 °C 30.2in /  1023.0hPa SSE 4.9mph /  7.9km/h 5mph /  8km/h 84% 0in /  0.0mm 18 W/m2
16:12 50.2 °F /  10.1 °C 45.5 °F /  7.5 °C 30.2in /  1023.4hPa Calm   4mph /  6.4km/h 84% 0in /  0.0mm 16 W/m2
16:17 49.8 °F /  9.9 °C 45.1 °F /  7.3 °C 30.2in /  1023.4hPa East 0.9mph /  1.4km/h 4mph /  6.4km/h 84% 0in /  0.0mm 16 W/m2
16:22 49.6 °F /  9.8 °C 45.3 °F /  7.4 °C 30.2in /  1023.4hPa SE 0.9mph /  1.4km/h 1mph /  1.6km/h 85% 0in /  0.0mm 14 W/m2
16:28 49.5 °F /  9.7 °C 45.1 °F /  7.3 °C 30.2in /  1023.4hPa Calm   4mph /  6.4km/h 85% 0in /  0.0mm 14 W/m2
16:33 49.1 °F /  9.5 °C 44.8 °F /  7.1 °C 30.2in /  1023.4hPa Calm   2mph /  3.2km/h 85% 0in /  0.0mm 12 W/m2
16:38 48.7 °F /  9.3 °C 44.8 °F /  7.1 °C 30.2in /  1023.4hPa Calm   3mph /  4.8km/h 86% 0in /  0.0mm 12 W/m2
16:43 48.6 °F /  9.2 °C 44.6 °F /  7 °C 30.2in /  1023.4hPa Calm     86% 0in /  0.0mm 11 W/m2
16:48 48.4 °F /  9.1 °C 44.8 °F /  7.1 °C 30.2in /  1023.4hPa Calm     87% 0in /  0.0mm 9 W/m2
16:53 48 °F /  8.9 °C 44.4 °F /  6.9 °C 30.2in /  1023.4hPa Calm   1mph /  1.6km/h 87% 0in /  0.0mm 7 W/m2
16:58 47.8 °F /  8.8 °C 44.4 °F /  6.9 °C 30.2in /  1023.0hPa Calm     88% 0in /  0.0mm 5 W/m2
17:03 47.7 °F /  8.7 °C 44.2 °F /  6.8 °C 30.2in /  1023.0hPa Calm     88% 0in /  0.0mm 5 W/m2
17:08 47.5 °F /  8.6 °C 44.1 °F /  6.7 °C 30.2in /  1023.0hPa Calm     88% 0in /  0.0mm 0 W/m2
17:13 47.3 °F /  8.5 °C 44.2 °F /  6.8 °C 30.2in /  1023.0hPa Calm     89% 0in /  0.0mm 0 W/m2
17:18 47.1 °F /  8.4 °C 44.1 °F /  6.7 °C 30.2in /  1023.0hPa Calm     89% 0in /  0.0mm 0 W/m2
17:23 46.9 °F /  8.3 °C 43.9 °F /  6.6 °C 30.2in /  1023.4hPa Calm     89% 0in /  0.0mm 0 W/m2
17:28 46.8 °F /  8.2 °C 43.7 °F /  6.5 °C 30.2in /  1023.4hPa Calm     89% 0in /  0.0mm 0 W/m2
17:33 46.6 °F /  8.1 °C 43.5 °F /  6.4 °C 30.2in /  1023.4hPa Calm     89% 0in /  0.0mm 0 W/m2
17:39 46.2 °F /  7.9 °C 43.5 °F /  6.4 °C 30.2in /  1023.4hPa Calm     90% 0in /  0.0mm 0 W/m2
17:44 46.2 °F /  7.9 °C 43.5 °F /  6.4 °C 30.2in /  1023.4hPa Calm     90% 0in /  0.0mm 0 W/m2
17:49 46 °F /  7.8 °C 43.5 °F /  6.4 °C 30.2in /  1023.4hPa Calm     91% 0in /  0.0mm 0 W/m2
17:54 45.9 °F /  7.7 °C 43.3 °F /  6.3 °C 30.2in /  1023.4hPa Calm     91% 0in /  0.0mm 0 W/m2
17:59 45.9 °F /  7.7 °C 43.3 °F /  6.3 °C 30.2in /  1023.4hPa Calm     91% 0in /  0.0mm 0 W/m2
18:04 45.7 °F /  7.6 °C 43.2 °F /  6.2 °C 30.2in /  1023.4hPa Calm     91% 0in /  0.0mm 0 W/m2
18:09 45.7 °F /  7.6 °C 43.5 °F /  6.4 °C 30.2in /  1023.4hPa Calm     92% 0in /  0.0mm 0 W/m2
18:14 45.5 °F /  7.5 °C 43.3 °F /  6.3 °C 30.2in /  1023.4hPa Calm     92% 0in /  0.0mm 0 W/m2
18:19 45.3 °F /  7.4 °C 43.2 °F /  6.2 °C 30.2in /  1023.4hPa Calm     92% 0in /  0.0mm 0 W/m2
18:24 45.3 °F /  7.4 °C 43.2 °F /  6.2 °C 30.2in /  1023.4hPa Calm     92% 0in /  0.0mm 0 W/m2
18:29 45.1 °F /  7.3 °C 43 °F /  6.1 °C 30.2in /  1023.0hPa Calm     92% 0in /  0.0mm 0 W/m2
18:34 45.1 °F /  7.3 °C 43 °F /  6.1 °C 30.2in /  1023.0hPa Calm     92% 0in /  0.0mm 0 W/m2
18:39 45 °F /  7.2 °C 42.8 °F /  6 °C 30.2in /  1023.4hPa Calm     92% 0in /  0.0mm 0 W/m2
18:44 44.8 °F /  7.1 °C 42.6 °F /  5.9 °C 30.2in /  1023.4hPa Calm     92% 0in /  0.0mm 0 W/m2
18:49 44.6 °F /  7 °C 42.4 °F /  5.8 °C 30.2in /  1023.4hPa Calm     92% 0in /  0.0mm 0 W/m2
18:54 44.4 °F /  6.9 °C 42.3 °F /  5.7 °C 30.2in /  1023.4hPa Calm     92% 0in /  0.0mm 0 W/m2
18:59 44.2 °F /  6.8 °C 42.3 °F /  5.7 °C 30.2in /  1023.0hPa Calm     93% 0in /  0.0mm 0 W/m2
19:04 44.2 °F /  6.8 °C 42.3 °F /  5.7 °C 30.2in /  1023.4hPa Calm     93% 0in /  0.0mm 0 W/m2
19:09 44.2 °F /  6.8 °C 42.3 °F /  5.7 °C 30.2in /  1023.4hPa Calm     93% 0in /  0.0mm 0 W/m2
19:14 44.2 °F /  6.8 °C 42.3 °F /  5.7 °C 30.2in /  1023.4hPa Calm     93% 0in /  0.0mm 0 W/m2
19:20 44.2 °F /  6.8 °C 42.3 °F /  5.7 °C 30.2in /  1023.4hPa Calm     93% 0in /  0.0mm 0 W/m2
19:25 44.1 °F /  6.7 °C 42.4 °F /  5.8 °C 30.2in /  1023.4hPa Calm   1mph /  1.6km/h 94% 0in /  0.0mm 0 W/m2
19:30 44.1 °F /  6.7 °C 42.4 °F /  5.8 °C 30.2in /  1023.4hPa Calm     94% 0in /  0.0mm 0 W/m2
19:35 44.1 °F /  6.7 °C 42.4 °F /  5.8 °C 30.2in /  1023.4hPa Calm     94% 0in /  0.0mm 0 W/m2
19:40 44.1 °F /  6.7 °C 42.4 °F /  5.8 °C 30.2in /  1023.4hPa NE 5mph /  8km/h 5mph /  8km/h 94% 0in /  0.0mm 0 W/m2
19:45 43.9 °F /  6.6 °C 41.9 °F /  5.5 °C 30.2in /  1023.4hPa Calm     93% 0in /  0.0mm 0 W/m2
19:50 43.7 °F /  6.5 °C 42.1 °F /  5.6 °C 30.2in /  1023.4hPa Calm   4mph /  6.4km/h 94% 0in /  0.0mm 0 W/m2
19:55 43.5 °F /  6.4 °C 41.9 °F /  5.5 °C 30.2in /  1023.0hPa Calm     94% 0in /  0.0mm 0 W/m2
20:00 43.3 °F /  6.3 °C 41.7 °F /  5.4 °C 30.2in /  1023.0hPa Calm     94% 0in /  0.0mm 0 W/m2
20:05 43.2 °F /  6.2 °C 41.5 °F /  5.3 °C 30.2in /  1023.0hPa Calm   1mph /  1.6km/h 94% 0in /  0.0mm 0 W/m2
20:10 43.2 °F /  6.2 °C 41.5 °F /  5.3 °C 30.2in /  1023.0hPa Calm     94% 0in /  0.0mm 0 W/m2
20:15 43 °F /  6.1 °C 41.4 °F /  5.2 °C 30.2in /  1023.0hPa Calm     94% 0in /  0.0mm 0 W/m2
20:20 43 °F /  6.1 °C 41.4 °F /  5.2 °C 30.2in /  1023.0hPa Calm   3mph /  4.8km/h 94% 0in /  0.0mm 0 W/m2
20:25 42.8 °F /  6 °C 41.2 °F /  5.1 °C 30.2in /  1023.0hPa Calm     94% 0in /  0.0mm 0 W/m2
20:30 42.6 °F /  5.9 °C 41 °F /  5 °C 30.2in /  1023.0hPa Calm   3mph /  4.8km/h 94% 0in /  0.0mm 0 W/m2
20:35 42.6 °F /  5.9 °C 41 °F /  5 °C 30.2in /  1023.0hPa Calm     94% 0in /  0.0mm 0 W/m2
20:40 42.4 °F /  5.8 °C 40.8 °F /  4.9 °C 30.2in /  1023.0hPa SSW 2mph /  3.2km/h 3mph /  4.8km/h 94% 0in /  0.0mm 0 W/m2
20:45 42.4 °F /  5.8 °C 40.8 °F /  4.9 °C 30.2in /  1023.0hPa Calm     94% 0in /  0.0mm 0 W/m2
20:50 42.3 °F /  5.7 °C 40.6 °F /  4.8 °C 30.2in /  1022.7hPa Calm   3mph /  4.8km/h 94% 0in /  0.0mm 0 W/m2
20:55 42.3 °F /  5.7 °C 40.6 °F /  4.8 °C 30.2in /  1022.7hPa Calm     94% 0in /  0.0mm 0 W/m2
21:00 42.3 °F /  5.7 °C 41 °F /  5 °C 30.2in /  1022.7hPa Calm   1mph /  1.6km/h 95% 0in /  0.0mm 0 W/m2
21:05 42.1 °F /  5.6 °C 40.8 °F /  4.9 °C 30.2in /  1022.7hPa SW 0.9mph /  1.4km/h 1mph /  1.6km/h 95% 0in /  0.0mm 0 W/m2
21:10 42.1 °F /  5.6 °C 40.8 °F /  4.9 °C 30.2in /  1022.4hPa Calm     95% 0in /  0.0mm 0 W/m2
21:15 42.1 °F /  5.6 °C 40.8 °F /  4.9 °C 30.2in /  1022.4hPa Calm   1mph /  1.6km/h 95% 0in /  0.0mm 0 W/m2
21:20 41.9 °F /  5.5 °C 40.6 °F /  4.8 °C 30.2in /  1022.4hPa Calm     95% 0in /  0.0mm 0 W/m2
21:25 41.7 °F /  5.4 °C 40.5 °F /  4.7 °C 30.2in /  1022.4hPa Calm   1mph /  1.6km/h 95% 0in /  0.0mm 0 W/m2
21:30 41.7 °F /  5.4 °C 40.5 °F /  4.7 °C 30.2in /  1022.4hPa Calm     95% 0in /  0.0mm 0 W/m2
21:35 41.5 °F /  5.3 °C 40.3 °F /  4.6 °C 30.2in /  1022.4hPa Calm     95% 0in /  0.0mm 0 W/m2
21:40 41.5 °F /  5.3 °C 40.3 °F /  4.6 °C 30.2in /  1022.0hPa ENE 2mph /  3.2km/h 2mph /  3.2km/h 95% 0in /  0.0mm 0 W/m2
21:45 41.4 °F /  5.2 °C 40.1 °F /  4.5 °C 30.2in /  1022.0hPa Calm     95% 0in /  0.0mm 0 W/m2
21:50 41.4 °F /  5.2 °C 40.1 °F /  4.5 °C 30.2in /  1022.0hPa Calm     95% 0in /  0.0mm 0 W/m2
21:55 41.2 °F /  5.1 °C 39.9 °F /  4.4 °C 30.2in /  1022.0hPa Calm   4mph /  6.4km/h 95% 0in /  0.0mm 0 W/m2
22:00 41.2 °F /  5.1 °C 39.9 °F /  4.4 °C 30.2in /  1022.0hPa Calm   5mph /  8km/h 95% 0in /  0.0mm 0 W/m2
22:05 41 °F /  5 °C 39.7 °F /  4.3 °C 30.2in /  1022.0hPa Calm   1mph /  1.6km/h 95% 0in /  0.0mm 0 W/m2
22:10 40.8 °F /  4.9 °C 39.6 °F /  4.2 °C 30.2in /  1021.7hPa Calm     95% 0in /  0.0mm 0 W/m2
22:15 40.6 °F /  4.8 °C 39.4 °F /  4.1 °C 30.2in /  1021.7hPa Calm     95% 0in /  0.0mm 0 W/m2
22:20 40.6 °F /  4.8 °C 39.4 °F /  4.1 °C 30.2in /  1021.7hPa Calm     95% 0in /  0.0mm 0 W/m2
22:25 40.5 °F /  4.7 °C 39.2 °F /  4 °C 30.2in /  1021.7hPa Calm     95% 0in /  0.0mm 0 W/m2
22:30 40.5 °F /  4.7 °C 39.2 °F /  4 °C 30.2in /  1021.7hPa Calm     95% 0in /  0.0mm 0 W/m2
22:35 40.3 °F /  4.6 °C 39 °F /  3.9 °C 30.2in /  1021.3hPa Calm     95% 0in /  0.0mm 0 W/m2
22:40 40.1 °F /  4.5 °C 38.8 °F /  3.8 °C 30.2in /  1021.3hPa Calm     95% 0in /  0.0mm 0 W/m2
22:45 39.9 °F /  4.4 °C 38.7 °F /  3.7 °C 30.2in /  1021.3hPa Calm     95% 0in /  0.0mm 0 W/m2
22:50 39.9 °F /  4.4 °C 38.7 °F /  3.7 °C 30.2in /  1021.3hPa Calm     95% 0in /  0.0mm 0 W/m2
22:55 39.7 °F /  4.3 °C 38.5 °F /  3.6 °C 30.2in /  1021.3hPa Calm     95% 0in /  0.0mm 0 W/m2
23:00 39.7 °F /  4.3 °C 38.5 °F /  3.6 °C 30.2in /  1021.3hPa Calm     95% 0in /  0.0mm 0 W/m2
23:05 39.6 °F /  4.2 °C 38.3 °F /  3.5 °C 30.2in /  1021.3hPa Calm     95% 0in /  0.0mm 0 W/m2
23:10 39.7 °F /  4.3 °C 38.7 °F /  3.7 °C 30.2in /  1021.3hPa Calm     96% 0in /  0.0mm 0 W/m2
23:15 39.7 °F /  4.3 °C 38.7 °F /  3.7 °C 30.2in /  1021.3hPa Calm     96% 0in /  0.0mm 0 W/m2
23:21 39.7 °F /  4.3 °C 38.7 °F /  3.7 °C 30.2in /  1021.3hPa Calm     96% 0in /  0.0mm 0 W/m2
23:26 39.7 °F /  4.3 °C 38.7 °F /  3.7 °C 30.2in /  1021.3hPa Calm     96% 0in /  0.0mm 0 W/m2
23:31 39.6 °F /  4.2 °C 38.5 °F /  3.6 °C 30.2in /  1021.3hPa Calm     96% 0in /  0.0mm 0 W/m2
23:36 39.6 °F /  4.2 °C 38.5 °F /  3.6 °C 30.2in /  1021.3hPa Calm     96% 0in /  0.0mm 0 W/m2
23:41 39.4 °F /  4.1 °C 38.3 °F /  3.5 °C 30.2in /  1021.3hPa Calm     96% 0in /  0.0mm 0 W/m2
23:46 39.2 °F /  4 °C 37.9 °F /  3.3 °C 30.2in /  1021.3hPa Calm     95% 0in /  0.0mm 0 W/m2
23:51 39 °F /  3.9 °C 37.8 °F /  3.2 °C 30.2in /  1021.3hPa Calm     95% 0in /  0.0mm 0 W/m2
23:56 39 °F /  3.9 °C 37.9 °F /  3.3 °C 30.2in /  1021.3hPa Calm     96% 0in /  0.0mm 0 W/m2
Juneau County Weather
Compliments of Weather Underground - 4 mb